Terminal Aerodrome Forecast
Issued by NWS Tampa Bay Area, FL

Home | Current Version | Previous Version | Text Only | Print | Product List | Glossary On
Versions: 1 2 3 4 5 6 7 8 9 10 11 12 13 14 15
000
FTUS42 KTBW 012339
TAFSRQ
TAF
KSRQ 012339Z 0200/0224 VRB04KT P6SM FEW035
     FM021400 05006KT P6SM VCTS SCT035CB SCT250
     FM022100 26008KT P6SM SCT040 BKN080 BKN250=

USA.gov is the U.S. government's official web portal to all federal, state and local government web resources and services.